aviador You're here:

KDHN Decoded Metar

DOTHAN in AL, USA
Report Time2017-08-17 23:53:00
UTC Time2017-08-18 01:00:08
Flight Rules Old
Wind300° at 06 kt
W.Decomp.*RWY 32: 5.7 kt HW 1.8 kt LCW
RWY 36: 3.3 kt HW 5 kt LCW
W.Rank300° ranks 12
Current wind is below 300° avg. (7.6)
Visibility9999 m
Phenomena:N/A
Clouds:N/A
Expected CloudBase > 3,200 ft AGL from Temp-Dew spread
CeilingNone
Temp31°C (ISA +17)
Dew Point23°C (62% RH)
Heat Index35.4°C
QNH1018 hPa
Density Alt2,487 ft
Elevation371 ft
Report Wrong Elevation
Raw Report
METAR KDHN 172353Z 30006KT 10SM CLR 31/23 A3005 RMK AO2 SLP167 T03110228
10339 20311 56000=

Extra information for KDHN:More info

Metar Taf Metar & Taf Last 4 Metars F.Rules Stats Wind Profile Meteogram Temp Stats Airport Information Weather charts Add Link Nearby VenuesMetar ALERT Operation Metar Decoded Social comments

AIRNAV info for KDHN